createdAt,value
2016-03-19T00:01:19.254Z,1
2016-03-19T00:04:38.606Z,1
2016-03-19T00:07:46.988Z,1
2016-03-19T00:10:49.184Z,1
2016-03-19T00:14:00.052Z,1
2016-03-19T00:17:10.107Z,1
2016-03-19T00:20:23.274Z,1
2016-03-19T00:23:40.235Z,1
2016-03-19T00:26:42.306Z,1
2016-03-19T00:29:55.485Z,1
2016-03-19T00:33:08.962Z,1
2016-03-19T00:36:21.942Z,1
2016-03-19T00:39:40.934Z,1
2016-03-19T00:42:43.208Z,1
2016-03-19T00:45:58.451Z,1
2016-03-19T00:49:05.755Z,1
2016-03-19T00:52:17.124Z,1
2016-03-19T00:55:27.477Z,1
2016-03-19T00:58:46.657Z,1
2016-03-19T01:01:48.978Z,1
2016-03-19T01:04:58.815Z,1
2016-03-19T01:08:11.463Z,1
2016-03-19T01:11:24.561Z,1
2016-03-19T01:14:43.286Z,1
2016-03-19T01:17:45.456Z,1
2016-03-19T01:20:58.491Z,1
2016-03-19T01:24:11.809Z,1
2016-03-19T01:27:24.912Z,1
2016-03-19T01:30:44.171Z,1
2016-03-19T01:33:46.522Z,0
2016-03-19T01:36:59.531Z,0
2016-03-19T01:40:12.772Z,0
2016-03-19T01:43:25.940Z,0
2016-03-19T01:46:45.166Z,0
2016-03-19T01:49:47.534Z,0
2016-03-19T01:53:00.340Z,0
2016-03-19T01:56:13.253Z,0
2016-03-19T01:59:26.437Z,0
2016-03-19T02:02:45.647Z,0
2016-03-19T02:05:47.859Z,0
2016-03-19T02:09:00.804Z,0
2016-03-19T02:12:12.047Z,0
2016-03-19T02:15:25.183Z,0
2016-03-19T02:18:42.455Z,0
2016-03-19T02:21:44.667Z,0
2016-03-19T02:24:54.378Z,0
2016-03-19T02:28:07.387Z,0
2016-03-19T02:31:20.456Z,0
2016-03-19T02:34:39.640Z,0
2016-03-19T02:37:47.835Z,0
2016-03-19T02:40:49.952Z,0
2016-03-19T02:44:00.617Z,0
2016-03-19T02:47:13.703Z,0
2016-03-19T02:50:23.496Z,0
2016-03-19T02:53:39.081Z,0
2016-03-19T02:56:47.214Z,0
2016-03-19T02:59:49.284Z,0
2016-03-19T03:03:02.153Z,0
2016-03-19T03:06:15.223Z,0
2016-03-19T03:09:26.264Z,0
2016-03-19T03:12:45.289Z,0
2016-03-19T03:15:47.483Z,0
2016-03-19T03:19:00.366Z,0
2016-03-19T03:22:10.953Z,0
2016-03-19T03:25:22.024Z,0
2016-03-19T03:28:41.659Z,0
2016-03-19T03:31:43.527Z,0
2016-03-19T03:34:54.989Z,0
2016-03-19T03:38:05.653Z,0
2016-03-19T03:41:18.926Z,0
2016-03-19T03:44:31.561Z,0
2016-03-19T03:47:44.304Z,0
2016-03-19T03:50:57.344Z,0
2016-03-19T03:54:10.290Z,0
2016-03-19T03:57:23.156Z,0
2016-03-19T04:00:42.026Z,0
2016-03-19T04:03:44.066Z,0
2016-03-19T04:06:54.636Z,0
2016-03-19T04:10:05.379Z,0
2016-03-19T04:13:15.793Z,0
2016-03-19T04:16:28.570Z,0
2016-03-19T04:19:47.641Z,0
2016-03-19T04:22:49.695Z,0
2016-03-19T04:26:02.171Z,0
2016-03-19T04:29:14.977Z,0
2016-03-19T04:32:28.034Z,1
2016-03-19T04:35:46.434Z,1
2016-03-19T04:38:50.489Z,2
2016-03-19T04:41:57.652Z,3
2016-03-19T04:45:10.052Z,4
2016-03-19T04:48:23.044Z,7
2016-03-19T04:51:40.086Z,9
2016-03-19T04:54:48.125Z,14
2016-03-19T04:57:50.102Z,22
2016-03-19T05:01:03.188Z,35
2016-03-19T05:04:16.134Z,47
2016-03-19T05:07:28.784Z,67
2016-03-19T05:10:47.668Z,83
2016-03-19T05:13:49.614Z,118
2016-03-19T05:16:59.669Z,156
2016-03-19T05:20:11.051Z,248
2016-03-19T05:23:20.638Z,277
2016-03-19T05:26:39.273Z,247
2016-03-19T05:29:47.219Z,290
2016-03-19T05:32:49.321Z,384
2016-03-19T05:36:02.376Z,468
2016-03-19T05:39:12.681Z,531
2016-03-19T05:42:24.626Z,698
2016-03-19T05:45:43.653Z,746
2016-03-19T05:48:46.020Z,997
2016-03-19T05:51:58.919Z,1349
2016-03-19T05:55:09.302Z,1601
2016-03-19T05:58:22.326Z,1929
2016-03-19T06:01:40.633Z,2123
2016-03-19T06:04:42.907Z,2278
2016-03-19T06:07:53.587Z,2379
2016-03-19T06:11:06.876Z,2583
2016-03-19T06:14:18.634Z,2551
2016-03-19T06:17:31.833Z,2597
2016-03-19T06:20:46.919Z,2276
2016-03-19T06:23:56.864Z,2248
2016-03-19T06:27:09.857Z,2645
2016-03-19T06:30:22.912Z,3104
2016-03-19T06:33:40.629Z,3027
2016-03-19T06:36:42.824Z,2947
2016-03-19T06:39:53.081Z,3545
2016-03-19T06:43:02.997Z,3768
2016-03-19T06:46:16.130Z,3552
2016-03-19T06:49:26.906Z,3420
2016-03-19T06:52:46.164Z,3715
2016-03-19T06:55:48.469Z,4029
2016-03-19T06:59:00.571Z,3452
2016-03-19T07:02:13.719Z,2988
2016-03-19T07:05:24.259Z,3488
2016-03-19T07:08:41.082Z,4050
2016-03-19T07:11:43.434Z,4269
2016-03-19T07:14:56.786Z,4800
2016-03-19T07:18:10.059Z,6054
2016-03-19T07:21:23.380Z,5406
2016-03-19T07:24:42.719Z,5412
2016-03-19T07:27:45.258Z,5751
2016-03-19T07:30:58.547Z,6398
2016-03-19T07:34:10.149Z,7229
2016-03-19T07:37:20.642Z,7337
2016-03-19T07:40:39.996Z,9689
2016-03-19T07:43:42.629Z,11019
2016-03-19T07:46:56.075Z,4406
2016-03-19T07:50:08.645Z,384
2016-03-19T07:53:23.669Z,384
2016-03-19T07:56:44.070Z,384
2016-03-19T07:59:48.938Z,384
2016-03-19T08:03:01.852Z,384
2016-03-19T08:06:17.704Z,384
2016-03-19T08:09:31.823Z,384
2016-03-19T08:12:48.410Z,384
2016-03-19T08:16:02.606Z,5262
2016-03-19T08:19:15.255Z,384
2016-03-19T08:22:29.359Z,10089
2016-03-19T08:25:44.102Z,8353
2016-03-19T08:28:59.266Z,384
2016-03-19T08:32:14.711Z,384
2016-03-19T08:35:29.863Z,10190
2016-03-19T08:38:43.465Z,11060
2016-03-19T08:41:56.160Z,7015
2016-03-19T08:45:06.621Z,5046
2016-03-19T08:48:17.926Z,5009
2016-03-19T08:51:28.139Z,4670
2016-03-19T08:54:45.008Z,3733
2016-03-19T08:57:47.516Z,3093
2016-03-19T09:01:00.493Z,3368
2016-03-19T09:04:13.672Z,3912
2016-03-19T09:07:24.588Z,4896
2016-03-19T09:10:41.879Z,7176
2016-03-19T09:13:44.292Z,11257
2016-03-19T09:16:55.223Z,7797
2016-03-19T09:20:08.559Z,5496
2016-03-19T09:23:21.770Z,4224
2016-03-19T09:26:38.844Z,5132
2016-03-19T09:29:46.961Z,384
2016-03-19T09:32:49.735Z,15751
2016-03-19T09:36:03.743Z,6103
2016-03-19T09:39:17.641Z,6063
2016-03-19T09:42:31.152Z,3822
2016-03-19T09:45:47.160Z,3064
2016-03-19T09:48:49.590Z,3283
2016-03-19T09:52:00.301Z,4006
2016-03-19T09:55:10.684Z,5227
2016-03-19T09:58:23.286Z,5438
2016-03-19T10:01:39.313Z,8021
2016-03-19T10:04:47.743Z,7464
2016-03-19T10:07:50.110Z,4463
2016-03-19T10:11:02.493Z,3174
2016-03-19T10:14:12.315Z,2604
2016-03-19T10:17:22.308Z,2706
2016-03-19T10:20:32.540Z,3196
2016-03-19T10:23:47.532Z,3699
2016-03-19T10:26:58.284Z,4496
2016-03-19T10:30:11.553Z,6338
2016-03-19T10:33:25.278Z,9748
2016-03-19T10:36:44.631Z,13774
2016-03-19T10:39:47.106Z,12606
2016-03-19T10:43:00.583Z,10880
2016-03-19T10:46:14.108Z,12535
2016-03-19T10:49:29.915Z,11402
2016-03-19T10:52:47.173Z,9539
2016-03-19T10:55:49.588Z,12101
2016-03-19T10:59:02.751Z,12028
2016-03-19T11:02:15.868Z,9861
2016-03-19T11:05:26.111Z,8664
2016-03-19T11:08:45.341Z,6519
2016-03-19T11:11:47.505Z,6218
2016-03-19T11:14:57.294Z,5993
2016-03-19T11:18:07.786Z,9027
2016-03-19T11:21:21.030Z,8352
2016-03-19T11:24:31.430Z,6657
2016-03-19T11:27:44.799Z,7046
2016-03-19T11:30:57.915Z,5871
2016-03-19T11:34:11.033Z,6780
2016-03-19T11:37:24.151Z,7029
2016-03-19T11:40:43.114Z,8759
2016-03-19T11:43:45.419Z,8724
2016-03-19T11:46:58.678Z,6580
2016-03-19T11:50:11.811Z,8219
2016-03-19T11:53:25.053Z,6087
2016-03-19T11:56:43.720Z,5767
2016-03-19T11:59:45.884Z,7194
2016-03-19T12:02:59.018Z,5224
2016-03-19T12:06:11.665Z,5222
2016-03-19T12:09:24.658Z,4877
2016-03-19T12:12:43.607Z,4966
2016-03-19T12:15:45.739Z,6355
2016-03-19T12:18:55.436Z,4923
2016-03-19T12:22:06.318Z,4655
2016-03-19T12:25:19.327Z,5931
2016-03-19T12:28:29.538Z,6451
2016-03-19T12:31:42.579Z,4877
2016-03-19T12:34:52.744Z,6665
2016-03-19T12:38:05.361Z,7746
2016-03-19T12:41:15.870Z,5228
2016-03-19T12:44:28.846Z,6064
2016-03-19T12:47:47.639Z,5818
2016-03-19T12:50:49.819Z,4582
2016-03-19T12:54:02.686Z,4785
2016-03-19T12:57:12.646Z,4430
2016-03-19T13:00:21.873Z,4047
2016-03-19T13:03:31.790Z,3933
2016-03-19T13:06:44.361Z,3892
2016-03-19T13:09:57.306Z,3866
2016-03-19T13:13:09.862Z,3830
2016-03-19T13:16:21.042Z,4081
2016-03-19T13:19:30.925Z,4266
2016-03-19T13:22:46.763Z,4538
2016-03-19T13:25:48.725Z,5444
2016-03-19T13:28:58.654Z,4333
2016-03-19T13:32:09.913Z,5171
2016-03-19T13:35:22.842Z,5457
2016-03-19T13:38:41.853Z,5056
2016-03-19T13:41:43.956Z,5335
2016-03-19T13:44:54.323Z,4903
2016-03-19T13:48:05.408Z,4462
2016-03-19T13:51:16.495Z,4410
2016-03-19T13:54:26.487Z,3652
2016-03-19T13:57:45.482Z,3634
2016-03-19T14:00:47.631Z,4688
2016-03-19T14:04:00.655Z,3873
2016-03-19T14:07:13.695Z,3819
2016-03-19T14:10:26.828Z,4018
2016-03-19T14:13:45.667Z,3619
2016-03-19T14:16:47.612Z,3860
2016-03-19T14:20:00.511Z,3839
2016-03-19T14:23:11.550Z,3689
2016-03-19T14:26:24.495Z,3668
2016-03-19T14:29:40.990Z,3938
2016-03-19T14:32:43.076Z,4259
2016-03-19T14:35:53.835Z,4628
2016-03-19T14:39:06.624Z,3973
2016-03-19T14:42:19.273Z,4365
2016-03-19T14:45:28.765Z,3657
2016-03-19T14:48:47.558Z,3793
2016-03-19T14:51:49.503Z,3322
2016-03-19T14:55:02.386Z,3047
2016-03-19T14:58:13.425Z,2926
2016-03-19T15:01:25.605Z,2846
2016-03-19T15:04:44.553Z,3061
2016-03-19T15:07:46.421Z,2848
2016-03-19T15:10:59.085Z,2736
2016-03-19T15:14:08.359Z,2577
2016-03-19T15:17:21.133Z,2493
2016-03-19T15:20:32.219Z,2693
2016-03-19T15:23:44.979Z,2618
2016-03-19T15:26:57.925Z,2869
2016-03-19T15:30:10.543Z,2390
2016-03-19T15:33:23.051Z,2351
2016-03-19T15:36:39.498Z,2426
2016-03-19T15:39:47.429Z,2222
2016-03-19T15:42:49.328Z,2176
2016-03-19T15:46:02.006Z,2105
2016-03-19T15:49:14.609Z,2077
2016-03-19T15:52:25.289Z,2048
2016-03-19T15:55:43.987Z,2006
2016-03-19T15:58:45.746Z,1939
2016-03-19T16:01:58.535Z,1853
2016-03-19T16:05:10.058Z,1778
2016-03-19T16:08:23.488Z,1733
2016-03-19T16:11:41.296Z,1697
2016-03-19T16:14:43.101Z,1617
2016-03-19T16:17:53.750Z,1537
2016-03-19T16:21:06.180Z,1453
2016-03-19T16:24:16.719Z,1391
2016-03-19T16:27:27.196Z,1309
2016-03-19T16:30:42.378Z,1282
2016-03-19T16:33:44.074Z,1172
2016-03-19T16:36:56.519Z,1136
2016-03-19T16:40:08.949Z,1064
2016-03-19T16:43:17.832Z,961
2016-03-19T16:46:30.075Z,878
2016-03-19T16:49:48.633Z,742
2016-03-19T16:52:50.141Z,678
2016-03-19T16:56:02.039Z,590
2016-03-19T16:59:12.751Z,501
2016-03-19T17:02:25.336Z,404
2016-03-19T17:05:42.504Z,332
2016-03-19T17:08:43.937Z,289
2016-03-19T17:11:56.086Z,240
2016-03-19T17:15:08.344Z,182
2016-03-19T17:18:20.166Z,144
2016-03-19T17:21:32.501Z,103
2016-03-19T17:24:48.543Z,66
2016-03-19T17:27:50.223Z,41
2016-03-19T17:31:00.310Z,26
2016-03-19T17:34:09.614Z,14
2016-03-19T17:37:22.012Z,8
2016-03-19T17:40:31.208Z,5
2016-03-19T17:43:43.344Z,3
2016-03-19T17:46:55.493Z,2
2016-03-19T17:50:07.032Z,2
2016-03-19T17:53:16.697Z,1
2016-03-19T17:56:26.392Z,0
2016-03-19T17:59:44.731Z,0
2016-03-19T18:02:46.067Z,0
2016-03-19T18:05:55.169Z,0
2016-03-19T18:09:05.678Z,0
2016-03-19T18:12:15.966Z,0
2016-03-19T18:15:28.364Z,0
2016-03-19T18:18:46.797Z,0
2016-03-19T18:21:48.415Z,0
2016-03-19T18:25:00.908Z,0
2016-03-19T18:28:13.072Z,1
2016-03-19T18:31:22.048Z,1
2016-03-19T18:34:40.637Z,1
2016-03-19T18:37:48.051Z,1
2016-03-19T18:40:49.356Z,1
2016-03-19T18:43:59.568Z,1
2016-03-19T18:47:08.326Z,1
2016-03-19T18:50:20.162Z,1
2016-03-19T18:53:32.061Z,1
2016-03-19T18:56:47.759Z,1
2016-03-19T18:59:49.174Z,1
2016-03-19T19:03:01.198Z,1
2016-03-19T19:06:11.940Z,1
2016-03-19T19:09:23.673Z,1
2016-03-19T19:12:41.591Z,1
2016-03-19T19:15:49.021Z,1
2016-03-19T19:18:50.530Z,1
2016-03-19T19:21:59.843Z,0
2016-03-19T19:25:10.072Z,0
2016-03-19T19:28:20.654Z,0
2016-03-19T19:31:32.694Z,0
2016-03-19T19:34:44.901Z,0
2016-03-19T19:37:57.203Z,0
2016-03-19T19:41:07.179Z,0
2016-03-19T19:44:19.405Z,0
2016-03-19T19:47:29.147Z,0
2016-03-19T19:50:47.292Z,1
2016-03-19T19:53:48.564Z,1
2016-03-19T19:57:00.885Z,1
2016-03-19T20:00:13.097Z,1
2016-03-19T20:03:25.589Z,1
2016-03-19T20:06:44.124Z,1
2016-03-19T20:09:45.116Z,1
2016-03-19T20:12:54.265Z,1
2016-03-19T20:16:05.977Z,1
2016-03-19T20:19:18.204Z,1
2016-03-19T20:22:27.774Z,1
2016-03-19T20:25:46.098Z,1
2016-03-19T20:28:47.308Z,1
2016-03-19T20:31:59.457Z,1
2016-03-19T20:35:11.636Z,1
2016-03-19T20:38:23.910Z,1
2016-03-19T20:41:42.233Z,1
2016-03-19T20:44:49.570Z,1
2016-03-19T20:47:50.860Z,1
2016-03-19T20:51:02.446Z,1
2016-03-19T20:54:11.594Z,1
2016-03-19T20:57:23.977Z,1
2016-03-19T21:00:42.191Z,1
2016-03-19T21:03:49.403Z,1
2016-03-19T21:06:50.683Z,1
2016-03-19T21:10:01.701Z,1
2016-03-19T21:13:13.818Z,1
2016-03-19T21:16:25.998Z,1
2016-03-19T21:19:43.881Z,1
2016-03-19T21:22:45.311Z,1
2016-03-19T21:25:56.978Z,1
2016-03-19T21:29:09.055Z,1
2016-03-19T21:32:20.718Z,1
2016-03-19T21:35:32.882Z,1
2016-03-19T21:38:44.672Z,1
2016-03-19T21:41:55.057Z,1
2016-03-19T21:45:07.300Z,1
2016-03-19T21:48:18.027Z,1
2016-03-19T21:51:29.926Z,1
2016-03-19T21:54:48.186Z,1
2016-03-19T21:57:49.444Z,1
2016-03-19T22:00:58.546Z,1
2016-03-19T22:04:10.727Z,1
2016-03-19T22:07:21.531Z,1
2016-03-19T22:10:33.132Z,1
2016-03-19T22:13:45.157Z,1
2016-03-19T22:16:54.995Z,1
2016-03-19T22:20:07.363Z,1
2016-03-19T22:23:18.137Z,1
2016-03-19T22:26:30.255Z,1
2016-03-19T22:29:45.293Z,1
2016-03-19T22:32:46.363Z,1
2016-03-19T22:35:58.344Z,1
2016-03-19T22:39:10.461Z,1
2016-03-19T22:42:21.923Z,1
2016-03-19T22:45:32.837Z,1
2016-03-19T22:48:44.814Z,1
2016-03-19T22:51:56.637Z,1
2016-03-19T22:55:08.567Z,1
2016-03-19T22:58:21.028Z,1
2016-03-19T23:01:33.068Z,1
2016-03-19T23:04:45.264Z,1
2016-03-19T23:07:56.072Z,1
2016-03-19T23:11:08.173Z,1
2016-03-19T23:14:17.744Z,1
2016-03-19T23:17:28.220Z,1
2016-03-19T23:20:46.103Z,1
2016-03-19T23:23:47.329Z,1
2016-03-19T23:26:57.060Z,1
2016-03-19T23:30:09.178Z,1
2016-03-19T23:33:21.325Z,1
2016-03-19T23:36:30.397Z,1
2016-03-19T23:39:46.311Z,1
2016-03-19T23:42:47.397Z,1
2016-03-19T23:45:57.329Z,1
2016-03-19T23:49:09.463Z,1
2016-03-19T23:52:18.080Z,1
2016-03-19T23:55:28.260Z,1
2016-03-19T23:58:43.112Z,1
